createdAt,value
2018-09-11T00:00:31.297Z,15.75
2018-09-11T00:03:00.107Z,15.79
2018-09-11T00:05:28.956Z,15.87
2018-09-11T00:07:57.641Z,15.59
2018-09-11T00:10:26.456Z,15.49
2018-09-11T00:12:55.184Z,15.48
2018-09-11T00:15:24.221Z,15.59
2018-09-11T00:17:52.886Z,15.74
2018-09-11T00:20:21.551Z,15.86
2018-09-11T00:22:50.364Z,15.89
2018-09-11T00:25:19.071Z,15.88
2018-09-11T00:27:47.689Z,15.94
2018-09-11T00:30:16.340Z,15.88
2018-09-11T00:32:44.975Z,15.81
2018-09-11T00:35:13.657Z,15.81
2018-09-11T00:37:42.340Z,15.69
2018-09-11T00:40:11.020Z,15.50
2018-09-11T00:42:39.676Z,15.37
2018-09-11T00:45:08.411Z,15.47
2018-09-11T00:47:37.056Z,15.68
2018-09-11T00:50:05.997Z,15.85
2018-09-11T00:52:34.659Z,15.90
2018-09-11T00:55:03.416Z,15.92
2018-09-11T00:57:32.089Z,15.93
2018-09-11T01:00:00.689Z,16.00
2018-09-11T01:02:29.412Z,16.07
2018-09-11T01:04:58.056Z,16.06
2018-09-11T01:07:26.806Z,16.06
2018-09-11T01:09:55.525Z,16.11
2018-09-11T01:12:24.122Z,16.10
2018-09-11T01:14:52.926Z,16.08
2018-09-11T01:17:21.540Z,16.01
2018-09-11T01:19:50.280Z,16.08
2018-09-11T01:22:18.926Z,16.10
2018-09-11T01:24:47.580Z,15.99
2018-09-11T01:27:16.210Z,16.05
2018-09-11T01:29:44.919Z,16.06
2018-09-11T01:32:13.626Z,16.12
2018-09-11T01:34:42.256Z,16.15
2018-09-11T01:37:11.004Z,16.13
2018-09-11T01:39:39.669Z,16.04
2018-09-11T01:42:08.364Z,16.00
2018-09-11T01:44:37.001Z,16.02
2018-09-11T01:47:05.794Z,16.03
2018-09-11T01:49:34.471Z,15.96
2018-09-11T01:52:03.210Z,15.91
2018-09-11T01:54:31.840Z,15.79
2018-09-11T01:57:00.443Z,15.84
2018-09-11T01:59:29.060Z,15.83
2018-09-11T02:01:57.729Z,15.73
2018-09-11T02:04:26.394Z,15.63
2018-09-11T02:06:55.136Z,15.61
2018-09-11T02:09:23.744Z,15.55
2018-09-11T02:11:52.425Z,15.47
2018-09-11T02:14:21.084Z,15.51
2018-09-11T02:16:49.785Z,15.62
2018-09-11T02:19:18.729Z,15.59
2018-09-11T02:21:47.627Z,15.47
2018-09-11T02:24:16.246Z,15.49
2018-09-11T02:26:44.926Z,15.64
2018-09-11T02:29:13.547Z,15.63
2018-09-11T02:31:42.174Z,15.52
2018-09-11T02:34:10.883Z,15.71
2018-09-11T02:36:39.539Z,15.75
2018-09-11T02:39:10.140Z,15.75
2018-09-11T02:41:38.895Z,15.75
2018-09-11T02:44:08.075Z,15.74
2018-09-11T02:46:36.674Z,15.79
2018-09-11T02:49:05.400Z,15.84
2018-09-11T02:51:34.830Z,15.75
2018-09-11T02:54:03.709Z,15.61
2018-09-11T02:56:32.645Z,15.53
2018-09-11T02:59:01.421Z,15.54
2018-09-11T03:01:30.080Z,15.61
2018-09-11T03:03:58.717Z,15.69
2018-09-11T03:06:27.414Z,15.68
2018-09-11T03:08:56.061Z,15.63
2018-09-11T03:11:24.720Z,15.61
2018-09-11T03:13:53.371Z,15.68
2018-09-11T03:16:22.670Z,15.77
2018-09-11T03:18:51.376Z,15.83
2018-09-11T03:21:19.999Z,15.80
2018-09-11T03:23:48.656Z,15.80
2018-09-11T03:26:17.528Z,15.88
2018-09-11T03:28:46.505Z,16.00
2018-09-11T03:31:15.164Z,16.03
2018-09-11T03:33:44.054Z,16.07
2018-09-11T03:36:13.464Z,16.08
2018-09-11T03:38:42.125Z,16.12
2018-09-11T03:41:10.776Z,16.17
2018-09-11T03:43:40.231Z,16.21
2018-09-11T03:46:09.541Z,16.33
2018-09-11T03:48:38.369Z,16.36
2018-09-11T03:51:07.157Z,16.42
2018-09-11T03:53:36.733Z,16.40
2018-09-11T03:56:05.905Z,16.33
2018-09-11T03:58:35.479Z,16.44
2018-09-11T04:01:04.281Z,16.40
2018-09-11T04:03:33.083Z,16.39
2018-09-11T04:06:01.774Z,16.20
2018-09-11T04:08:30.424Z,16.18
2018-09-11T04:10:59.114Z,16.16
2018-09-11T04:13:27.725Z,16.20
2018-09-11T04:15:56.401Z,16.35
2018-09-11T04:18:25.005Z,16.50
2018-09-11T04:20:53.779Z,16.46
2018-09-11T04:23:22.399Z,16.51
2018-09-11T04:25:51.141Z,16.57
2018-09-11T04:28:19.770Z,16.58
2018-09-11T04:30:48.564Z,16.60
2018-09-11T04:33:17.216Z,16.50
2018-09-11T04:35:46.036Z,16.42
2018-09-11T04:38:14.640Z,16.39
2018-09-11T04:40:43.251Z,16.36
2018-09-11T04:43:11.965Z,16.38
2018-09-11T04:45:40.555Z,16.44
2018-09-11T04:48:09.295Z,16.35
2018-09-11T04:50:37.986Z,16.32
2018-09-11T04:53:06.698Z,16.29
2018-09-11T04:55:35.356Z,16.18
2018-09-11T04:58:04.109Z,16.22
2018-09-11T05:00:32.796Z,16.06
2018-09-11T05:03:01.398Z,15.97
2018-09-11T05:05:30.155Z,15.91
2018-09-11T05:07:58.894Z,15.95
2018-09-11T05:10:27.626Z,15.92
2018-09-11T05:12:56.315Z,15.91
2018-09-11T05:15:25.054Z,15.94
2018-09-11T05:17:53.775Z,16.03
2018-09-11T05:20:22.458Z,16.12
2018-09-11T05:22:51.123Z,16.29
2018-09-11T05:25:19.849Z,16.24
2018-09-11T05:27:48.544Z,16.19
2018-09-11T05:30:17.153Z,16.18
2018-09-11T05:32:45.828Z,16.21
2018-09-11T05:35:14.511Z,16.30
2018-09-11T05:37:43.208Z,16.41
2018-09-11T05:40:11.930Z,16.46
2018-09-11T05:42:40.633Z,16.45
2018-09-11T05:45:09.360Z,16.47
2018-09-11T05:47:38.069Z,16.59
2018-09-11T05:50:06.785Z,16.53
2018-09-11T05:52:35.429Z,16.40
2018-09-11T05:55:05.028Z,16.47
2018-09-11T05:57:33.758Z,16.51
2018-09-11T06:00:02.684Z,16.52
2018-09-11T06:02:31.509Z,16.68
2018-09-11T06:05:00.185Z,16.80
2018-09-11T06:07:28.818Z,16.87
2018-09-11T06:09:57.582Z,16.87
2018-09-11T06:12:26.919Z,16.84
2018-09-11T06:14:55.584Z,16.81
2018-09-11T06:17:24.260Z,16.75
2018-09-11T06:19:52.919Z,16.73
2018-09-11T06:22:21.763Z,16.77
2018-09-11T06:24:50.658Z,16.82
2018-09-11T06:27:20.018Z,16.81
2018-09-11T06:29:49.357Z,16.74
2018-09-11T06:32:18.241Z,16.83
2018-09-11T06:34:46.904Z,16.87
2018-09-11T06:37:15.641Z,16.89
2018-09-11T06:39:44.533Z,16.94
2018-09-11T06:42:14.188Z,17.16
2018-09-11T06:44:43.684Z,17.06
2018-09-11T06:47:12.513Z,17.24
2018-09-11T06:49:41.699Z,17.54
2018-09-11T06:52:10.565Z,17.59
2018-09-11T06:54:39.427Z,17.58
2018-09-11T06:57:08.213Z,17.57
2018-09-11T06:59:37.609Z,17.44
2018-09-11T07:02:06.440Z,17.44
2018-09-11T07:04:35.363Z,17.53
2018-09-11T07:07:04.984Z,17.59
2018-09-11T07:09:34.887Z,17.69
2018-09-11T07:12:03.804Z,17.98
2018-09-11T07:14:33.251Z,18.13
2018-09-11T07:17:02.223Z,18.21
2018-09-11T07:19:31.212Z,18.31
2018-09-11T07:22:00.248Z,18.65
2018-09-11T07:24:29.300Z,18.75
2018-09-11T07:26:58.289Z,18.86
2018-09-11T07:29:27.238Z,18.93
2018-09-11T07:31:55.943Z,19.13
2018-09-11T07:34:24.744Z,19.22
2018-09-11T07:36:53.453Z,19.39
2018-09-11T07:39:22.285Z,19.58
2018-09-11T07:41:51.104Z,19.71
2018-09-11T07:44:20.479Z,19.80
2018-09-11T07:46:49.350Z,19.98
2018-09-11T07:49:18.340Z,20.16
2018-09-11T07:51:47.193Z,20.41
2018-09-11T07:54:15.959Z,20.64
2018-09-11T07:56:44.904Z,20.64
2018-09-11T07:59:13.860Z,20.89
2018-09-11T08:01:43.293Z,21.13
2018-09-11T08:04:12.318Z,21.15
2018-09-11T08:06:41.053Z,21.32
2018-09-11T08:09:12.400Z,21.26
2018-09-11T08:11:41.279Z,21.42
2018-09-11T08:14:11.165Z,21.46
2018-09-11T08:16:40.821Z,21.43
2018-09-11T08:19:09.670Z,21.56
2018-09-11T08:21:38.544Z,21.63
2018-09-11T08:24:07.265Z,21.59
2018-09-11T08:26:36.011Z,21.60
2018-09-11T08:29:05.729Z,21.45
2018-09-11T08:31:34.663Z,21.48
2018-09-11T08:34:03.836Z,21.65
2018-09-11T08:36:33.048Z,21.62
2018-09-11T08:39:01.844Z,21.85
2018-09-11T08:41:30.669Z,22.14
2018-09-11T08:43:59.446Z,22.23
2018-09-11T08:46:28.391Z,21.92
2018-09-11T08:48:57.199Z,21.93
2018-09-11T08:51:26.074Z,21.88
2018-09-11T08:53:54.950Z,21.87
2018-09-11T08:56:41.149Z,22.03
2018-09-11T09:02:33.325Z,21.92
2018-09-11T09:05:02.699Z,22.08
2018-09-11T09:07:31.579Z,22.34
2018-09-11T09:10:00.584Z,22.67
2018-09-11T09:12:29.297Z,22.80
2018-09-11T09:14:58.193Z,22.88
2018-09-11T09:17:26.924Z,22.69
2018-09-11T09:19:55.999Z,22.77
2018-09-11T09:22:24.780Z,22.66
2018-09-11T09:24:53.704Z,22.41
2018-09-11T09:27:22.572Z,22.38
2018-09-11T09:29:51.444Z,22.42
2018-09-11T09:32:20.935Z,22.36
2018-09-11T09:34:49.983Z,22.58
2018-09-11T09:37:18.873Z,22.53
2018-09-11T09:39:47.739Z,22.56
2018-09-11T09:42:16.659Z,22.63
2018-09-11T09:44:45.296Z,22.57
2018-09-11T09:47:14.289Z,22.78
2018-09-11T09:49:43.639Z,22.95
2018-09-11T09:52:12.601Z,23.16
2018-09-11T09:54:41.649Z,23.35
2018-09-11T09:57:11.943Z,23.19
2018-09-11T09:59:41.335Z,23.41
2018-09-11T10:02:15.309Z,23.83
2018-09-11T10:04:44.177Z,23.99
2018-09-11T10:07:12.853Z,24.06
2018-09-11T10:09:41.560Z,24.10
2018-09-11T10:12:11.393Z,24.36
2018-09-11T10:20:07.354Z,24.57
2018-09-11T10:22:36.073Z,24.54
2018-09-11T10:25:05.170Z,24.49
2018-09-11T10:27:34.233Z,24.60
2018-09-11T10:30:03.083Z,24.88
2018-09-11T10:32:32.014Z,24.99
2018-09-11T10:35:00.904Z,25.04
2018-09-11T10:37:30.408Z,25.00
2018-09-11T10:40:00.125Z,24.81
2018-09-11T10:42:29.092Z,24.79
2018-09-11T10:44:57.821Z,24.97
2018-09-11T10:47:26.553Z,25.15
2018-09-11T10:49:56.124Z,25.10
2018-09-11T10:52:25.284Z,24.74
2018-09-11T10:54:54.251Z,24.66
2018-09-11T10:57:23.069Z,24.65
2018-09-11T10:59:51.825Z,24.75
2018-09-11T11:02:20.772Z,24.96
2018-09-11T11:04:49.495Z,25.09
2018-09-11T11:07:18.289Z,25.07
2018-09-11T11:09:47.146Z,25.04
2018-09-11T11:12:16.564Z,25.19
2018-09-11T11:14:45.544Z,25.60
2018-09-11T11:17:14.373Z,25.57
2018-09-11T11:19:43.204Z,25.39
2018-09-11T11:22:12.393Z,25.41
2018-09-11T11:24:41.271Z,25.53
2018-09-11T11:27:10.153Z,25.50
2018-09-11T11:29:39.783Z,25.51
2018-09-11T11:32:08.634Z,25.51
2018-09-11T11:34:37.539Z,25.64
2018-09-11T11:37:07.170Z,25.83
2018-09-11T11:39:35.873Z,25.91
2018-09-11T11:42:05.228Z,26.00
2018-09-11T11:44:33.875Z,25.96
2018-09-11T11:47:02.783Z,25.88
2018-09-11T11:49:31.728Z,25.81
2018-09-11T11:52:00.423Z,25.90
2018-09-11T11:54:29.295Z,25.80
2018-09-11T11:56:58.612Z,25.73
2018-09-11T11:59:27.382Z,25.64
2018-09-11T12:01:56.651Z,25.45
2018-09-11T12:04:25.565Z,25.41
2018-09-11T12:06:55.103Z,25.42
2018-09-11T12:09:23.733Z,25.51
2018-09-11T12:11:52.429Z,25.80
2018-09-11T12:14:21.129Z,25.97
2018-09-11T12:16:49.812Z,25.99
2018-09-11T12:19:18.557Z,25.89
2018-09-11T12:21:47.245Z,25.94
2018-09-11T12:24:15.933Z,26.06
2018-09-11T12:26:44.760Z,26.22
2018-09-11T12:29:13.938Z,26.22
2018-09-11T12:31:43.475Z,26.27
2018-09-11T12:34:12.408Z,26.32
2018-09-11T12:36:41.175Z,26.53
2018-09-11T12:39:10.494Z,26.59
2018-09-11T12:41:40.006Z,26.55
2018-09-11T12:44:09.144Z,26.61
2018-09-11T12:46:38.358Z,26.54
2018-09-11T12:49:07.109Z,26.48
2018-09-11T12:51:36.163Z,26.68
2018-09-11T12:54:05.225Z,26.87
2018-09-11T12:56:34.463Z,26.86
2018-09-11T12:59:03.406Z,26.97
2018-09-11T13:01:32.258Z,26.88
2018-09-11T13:04:01.134Z,26.96
2018-09-11T13:06:30.142Z,26.90
2018-09-11T13:08:59.308Z,26.95
2018-09-11T13:11:28.188Z,26.94
2018-09-11T13:13:57.719Z,26.90
2018-09-11T13:16:26.737Z,26.95
2018-09-11T13:18:55.528Z,27.06
2018-09-11T13:21:24.404Z,27.06
2018-09-11T13:23:53.334Z,27.04
2018-09-11T13:26:22.398Z,27.04
2018-09-11T13:28:51.248Z,27.11
2018-09-11T13:31:20.015Z,27.13
2018-09-11T13:33:49.037Z,27.06
2018-09-11T13:36:17.772Z,26.97
2018-09-11T13:38:46.727Z,26.95
2018-09-11T13:41:15.413Z,26.80
2018-09-11T13:43:44.034Z,26.92
2018-09-11T13:46:13.142Z,26.97
2018-09-11T13:48:42.734Z,26.88
2018-09-11T13:51:12.162Z,26.95
2018-09-11T13:53:41.000Z,27.02
2018-09-11T13:56:10.237Z,27.03
2018-09-11T13:58:39.081Z,27.11
2018-09-11T14:01:09.111Z,27.16
2018-09-11T14:03:38.900Z,27.14
2018-09-11T14:06:07.739Z,27.08
2018-09-11T14:08:36.890Z,27.15
2018-09-11T14:11:05.765Z,27.12
2018-09-11T14:13:34.527Z,27.19
2018-09-11T14:16:03.398Z,27.22
2018-09-11T14:18:33.262Z,27.17
2018-09-11T14:21:02.363Z,27.17
2018-09-11T14:23:31.264Z,27.11
2018-09-11T14:26:00.480Z,27.19
2018-09-11T14:28:29.453Z,27.16
2018-09-11T14:30:58.683Z,27.14
2018-09-11T14:33:27.627Z,27.21
2018-09-11T14:35:57.192Z,27.27
2018-09-11T14:38:26.603Z,27.30
2018-09-11T14:40:55.299Z,27.11
2018-09-11T14:43:24.107Z,27.05
2018-09-11T14:45:53.604Z,27.07
2018-09-11T14:48:22.687Z,27.15
2018-09-11T14:50:52.044Z,27.21
2018-09-11T14:53:20.969Z,27.15
2018-09-11T14:55:49.881Z,27.12
2018-09-11T14:58:18.744Z,27.21
2018-09-11T15:00:47.654Z,27.27
2018-09-11T15:03:16.417Z,27.34
2018-09-11T15:05:45.277Z,27.22
2018-09-11T15:08:14.722Z,27.19
2018-09-11T15:10:43.853Z,27.18
2018-09-11T15:13:12.820Z,27.18
2018-09-11T15:15:42.558Z,27.20
2018-09-11T15:18:11.379Z,27.10
2018-09-11T15:20:40.343Z,27.01
2018-09-11T15:23:09.323Z,26.99
2018-09-11T15:25:38.083Z,26.95
2018-09-11T15:28:07.152Z,26.95
2018-09-11T15:30:35.879Z,26.92
2018-09-11T15:33:04.879Z,26.86
2018-09-11T15:35:33.757Z,26.86
2018-09-11T15:38:02.454Z,26.90
2018-09-11T15:40:31.169Z,26.81
2018-09-11T15:42:59.997Z,26.77
2018-09-11T15:45:29.154Z,26.76
2018-09-11T15:47:57.979Z,26.76
2018-09-11T15:50:27.111Z,26.78
2018-09-11T15:52:56.820Z,26.82
2018-09-11T15:55:25.629Z,26.82
2018-09-11T15:57:54.632Z,26.76
2018-09-11T16:00:23.360Z,26.63
2018-09-11T16:02:52.258Z,26.54
2018-09-11T16:05:22.152Z,26.52
2018-09-11T16:07:50.961Z,26.53
2018-09-11T16:10:20.028Z,26.43
2018-09-11T16:12:48.962Z,26.40
2018-09-11T16:15:17.767Z,26.41
2018-09-11T16:17:46.556Z,26.38
2018-09-11T16:20:15.568Z,26.35
2018-09-11T16:22:44.457Z,26.20
2018-09-11T16:25:14.462Z,26.00
2018-09-11T16:27:43.582Z,26.05
2018-09-11T16:30:13.291Z,26.01
2018-09-11T16:32:42.107Z,26.00
2018-09-11T16:35:10.949Z,25.93
2018-09-11T16:37:40.387Z,25.92
2018-09-11T16:40:09.343Z,25.89
2018-09-11T16:42:38.036Z,25.88
2018-09-11T16:45:07.362Z,25.78
2018-09-11T16:47:36.197Z,25.71
2018-09-11T16:50:05.223Z,25.63
2018-09-11T16:52:34.234Z,25.48
2018-09-11T16:55:03.285Z,25.40
2018-09-11T16:57:32.422Z,25.35
2018-09-11T17:00:01.238Z,25.33
2018-09-11T17:02:30.271Z,25.32
2018-09-11T17:04:59.687Z,25.21
2018-09-11T17:07:28.524Z,25.23
2018-09-11T17:09:57.539Z,25.14
2018-09-11T17:12:26.474Z,25.09
2018-09-11T17:14:55.625Z,24.92
2018-09-11T17:17:24.672Z,24.73
2018-09-11T17:19:53.393Z,24.61
2018-09-11T17:22:22.546Z,24.58
2018-09-11T17:24:51.497Z,24.61
2018-09-11T17:27:20.549Z,24.54
2018-09-11T17:29:49.105Z,24.49
2018-09-11T17:32:17.957Z,24.43
2018-09-11T17:34:46.732Z,24.39
2018-09-11T17:37:15.543Z,24.26
2018-09-11T17:39:45.019Z,24.26
2018-09-11T17:42:13.772Z,24.26
2018-09-11T17:44:42.532Z,24.16
2018-09-11T17:47:11.529Z,24.00
2018-09-11T17:49:40.647Z,23.76
2018-09-11T17:52:10.049Z,23.68
2018-09-11T17:54:38.812Z,23.55
2018-09-11T17:57:07.702Z,23.30
2018-09-11T17:59:37.524Z,23.24
2018-09-11T18:02:06.163Z,23.28
2018-09-11T18:04:35.207Z,23.23
2018-09-11T18:07:03.864Z,23.10
2018-09-11T18:09:32.829Z,23.03
2018-09-11T18:12:01.814Z,23.01
2018-09-11T18:14:30.692Z,22.85
2018-09-11T18:16:59.559Z,22.66
2018-09-11T18:19:28.699Z,22.68
2018-09-11T18:21:58.472Z,22.62
2018-09-11T18:24:27.589Z,22.62
2018-09-11T18:26:56.559Z,22.64
2018-09-11T18:29:25.835Z,22.64
2018-09-11T18:31:54.554Z,22.48
2018-09-11T18:34:23.262Z,22.31
2018-09-11T18:36:52.189Z,22.22
2018-09-11T18:39:20.862Z,22.16
2018-09-11T18:41:49.587Z,22.05
2018-09-11T18:44:18.312Z,22.03
2018-09-11T18:46:47.083Z,21.91
2018-09-11T18:49:15.758Z,21.83
2018-09-11T18:51:44.535Z,21.68
2018-09-11T18:54:13.252Z,21.58
2018-09-11T18:56:41.934Z,21.48
2018-09-11T18:59:10.624Z,21.29
2018-09-11T19:01:39.400Z,21.28
2018-09-11T19:04:08.157Z,21.29
2018-09-11T19:06:36.922Z,21.21
2018-09-11T19:09:08.150Z,21.03
2018-09-11T19:11:36.921Z,20.89
2018-09-11T19:14:05.914Z,20.74
2018-09-11T19:16:34.621Z,20.65
2018-09-11T19:19:03.295Z,20.62
2018-09-11T19:21:31.991Z,20.66
2018-09-11T19:24:00.660Z,20.57
2018-09-11T19:26:29.333Z,20.50
2018-09-11T19:28:58.403Z,20.51
2018-09-11T19:31:27.163Z,20.52
2018-09-11T19:33:55.889Z,20.49
2018-09-11T19:36:24.632Z,20.45
2018-09-11T19:38:53.304Z,20.37
2018-09-11T19:41:22.090Z,20.32
2018-09-11T19:43:50.763Z,20.29
2018-09-11T19:46:19.444Z,20.17
2018-09-11T19:48:48.166Z,20.14
2018-09-11T19:51:16.893Z,20.16
2018-09-11T19:53:45.642Z,20.10
2018-09-11T19:56:14.432Z,20.03
2018-09-11T19:58:43.108Z,19.99
2018-09-11T20:01:11.876Z,20.00
2018-09-11T20:03:40.929Z,19.99
2018-09-11T20:06:09.665Z,19.97
2018-09-11T20:08:38.358Z,19.86
2018-09-11T20:11:07.064Z,19.79
2018-09-11T20:13:35.826Z,19.72
2018-09-11T20:16:04.552Z,19.72
2018-09-11T20:18:33.267Z,19.63
2018-09-11T20:21:01.958Z,19.63
2018-09-11T20:23:30.701Z,19.62
2018-09-11T20:25:59.408Z,19.62
2018-09-11T20:28:28.103Z,19.64
2018-09-11T20:30:56.786Z,19.60
2018-09-11T20:33:25.513Z,19.55
2018-09-11T20:35:54.228Z,19.56
2018-09-11T20:38:23.048Z,19.59
2018-09-11T20:40:51.778Z,19.68
2018-09-11T20:43:20.500Z,19.81
2018-09-11T20:45:49.242Z,19.74
2018-09-11T20:48:17.951Z,19.83
2018-09-11T20:50:46.699Z,19.87
2018-09-11T20:53:15.408Z,19.83
2018-09-11T20:55:44.063Z,19.96
2018-09-11T20:58:12.771Z,19.98
2018-09-11T21:00:41.509Z,19.90
2018-09-11T21:03:11.113Z,19.88
2018-09-11T21:05:39.856Z,19.96
2018-09-11T21:08:08.617Z,20.10
2018-09-11T21:10:37.334Z,20.03
2018-09-11T21:13:06.127Z,20.14
2018-09-11T21:15:34.821Z,20.11
2018-09-11T21:18:03.607Z,20.06
2018-09-11T21:20:32.354Z,19.95
2018-09-11T21:23:01.034Z,19.89
2018-09-11T21:25:29.723Z,19.91
2018-09-11T21:27:58.428Z,19.92
2018-09-11T21:30:27.091Z,19.89
2018-09-11T21:32:55.776Z,19.89
2018-09-11T21:35:24.481Z,19.90
2018-09-11T21:37:53.287Z,19.87
2018-09-11T21:40:21.987Z,19.88
2018-09-11T21:42:50.686Z,19.90
2018-09-11T21:45:19.393Z,19.96
2018-09-11T21:47:48.120Z,20.09
2018-09-11T21:50:16.859Z,20.18
2018-09-11T21:52:45.532Z,20.18
2018-09-11T21:55:14.260Z,20.12
2018-09-11T21:57:42.920Z,20.10
2018-09-11T22:00:13.065Z,20.23
2018-09-11T22:02:41.869Z,20.21
2018-09-11T22:05:11.607Z,20.24
2018-09-11T22:07:41.337Z,20.32
2018-09-11T22:10:11.212Z,20.28
2018-09-11T22:12:39.898Z,20.24
2018-09-11T22:15:09.611Z,20.31
2018-09-11T22:17:38.365Z,20.29
2018-09-11T22:20:07.504Z,20.43
2018-09-11T22:22:36.205Z,20.42
2018-09-11T22:25:05.316Z,20.42
2018-09-11T22:27:34.083Z,20.30
2018-09-11T22:30:02.716Z,20.16
2018-09-11T22:32:31.437Z,20.24
2018-09-11T22:35:00.127Z,20.18
2018-09-11T22:37:28.779Z,20.10
2018-09-11T22:39:57.458Z,19.97
2018-09-11T22:42:26.167Z,19.89
2018-09-11T22:44:54.823Z,19.88
2018-09-11T22:47:24.127Z,19.90
2018-09-11T22:49:52.780Z,19.91
2018-09-11T22:52:21.436Z,19.81
2018-09-11T22:54:50.086Z,19.75
2018-09-11T22:57:18.787Z,19.78
2018-09-11T22:59:47.447Z,19.81
2018-09-11T23:02:16.145Z,19.66
2018-09-11T23:04:44.821Z,19.66
2018-09-11T23:07:13.472Z,19.54
2018-09-11T23:09:42.190Z,19.43
2018-09-11T23:12:10.866Z,19.48
2018-09-11T23:14:39.541Z,19.49
2018-09-11T23:17:08.151Z,19.52
2018-09-11T23:19:36.793Z,19.41
2018-09-11T23:22:05.604Z,19.43
2018-09-11T23:24:34.261Z,19.41
2018-09-11T23:27:02.996Z,19.42
2018-09-11T23:29:31.612Z,19.55
2018-09-11T23:32:00.272Z,19.67
2018-09-11T23:34:28.944Z,19.74
2018-09-11T23:36:57.625Z,19.76
2018-09-11T23:39:26.349Z,19.70
2018-09-11T23:41:55.020Z,19.74
2018-09-11T23:44:23.815Z,19.83
2018-09-11T23:46:52.517Z,19.70
2018-09-11T23:49:21.296Z,19.69
2018-09-11T23:51:49.986Z,19.64
2018-09-11T23:54:18.779Z,19.71
2018-09-11T23:56:47.404Z,19.77
2018-09-11T23:59:16.056Z,19.81
